Time;durP1;ratioP1;P1;durP2;ratioP2;P2;SDS_P1;SDS_P2;PMS_P1;PMS_P2;Temp;Humidity;BMP_temperature;BMP_pressure;BME280_temperature;BME280_humidity;BME280_pressure;Samples;Min_cycle;Max_cycle;Signal;HPM_P1;HPM_P2
2021/04/08 00:00:01;;;;;;;29.70;5.05;;;;;;;;;;5080506;28;20017;-63
2021/04/08 00:02:28;;;;;;;29.52;6.07;;;;;;;;;;5070929;28;20437;-50
2021/04/08 00:04:55;;;;;;;47.20;7.03;;;;;;;;;;5071994;28;20020;-52
2021/04/08 00:07:22;;;;;;;23.23;4.95;;;;;;;;;;5070086;28;20056;-52
2021/04/08 00:09:49;;;;;;;25.00;5.07;;;;;;;;;;5072661;28;20028;-52
2021/04/08 00:12:16;;;;;;;29.13;5.07;;;;;;;;;;5077861;28;20516;-60
2021/04/08 00:14:43;;;;;;;35.75;5.13;;;;;;;;;;5071366;28;20379;-51
2021/04/08 00:17:10;;;;;;;29.73;4.72;;;;;;;;;;5071538;28;20048;-59
2021/04/08 00:19:37;;;;;;;16.77;4.35;;;;;;;;;;5073227;28;20031;-63
2021/04/08 00:22:04;;;;;;;32.63;4.72;;;;;;;;;;5071952;28;20478;-58
2021/04/08 00:24:31;;;;;;;31.42;4.75;;;;;;;;;;5071453;28;20055;-59
2021/04/08 00:26:58;;;;;;;22.88;4.20;;;;;;;;;;5072104;28;20031;-55
2021/04/08 00:29:25;;;;;;;22.10;4.10;;;;;;;;;;5072686;28;20399;-57
2021/04/08 00:31:52;;;;;;;15.80;3.80;;;;;;;;;;5073505;28;20074;-57
2021/04/08 00:34:19;;;;;;;20.15;4.32;;;;;;;;;;5071537;28;20052;-58
2021/04/08 00:36:46;;;;;;;25.05;4.10;;;;;;;;;;5070565;28;20357;-59
2021/04/08 00:39:13;;;;;;;14.80;3.55;;;;;;;;;;5071820;28;20024;-55
2021/04/08 00:41:41;;;;;;;17.13;3.80;;;;;;;;;;5078384;28;20013;-57
2021/04/08 00:44:08;;;;;;;20.73;3.25;;;;;;;;;;5075947;28;20425;-53
2021/04/08 00:46:35;;;;;;;18.70;3.33;;;;;;;;;;5075798;28;20020;-60
2021/04/08 00:49:02;;;;;;;14.38;3.08;;;;;;;;;;5073201;28;20036;-55
2021/04/08 00:51:29;;;;;;;13.02;3.55;;;;;;;;;;5076718;28;20031;-60
2021/04/08 00:53:56;;;;;;;20.20;3.28;;;;;;;;;;5074894;28;20032;-58
2021/04/08 00:56:23;;;;;;;17.48;3.38;;;;;;;;;;5074418;28;20021;-57
2021/04/08 00:58:51;;;;;;;14.00;3.03;;;;;;;;;;5076209;28;20029;-57
2021/04/08 01:01:18;;;;;;;13.48;2.65;;;;;;;;;;5082147;28;20012;-58
2021/04/08 01:03:45;;;;;;;13.20;2.80;;;;;;;;;;5076953;28;20427;-59
2021/04/08 01:06:13;;;;;;;13.45;2.70;;;;;;;;;;5074717;28;20040;-60
2021/04/08 01:08:40;;;;;;;15.95;3.42;;;;;;;;;;5074286;28;20138;-59
2021/04/08 01:11:07;;;;;;;12.50;2.85;;;;;;;;;;5075259;28;20020;-58
2021/04/08 01:13:35;;;;;;;17.10;2.50;;;;;;;;;;5075220;28;20012;-54
2021/04/08 01:16:06;;;;;;;7.07;2.42;;;;;;;;;;5074166;28;20017;-56
2021/04/08 01:18:51;;;;;;;16.25;2.90;;;;;;;;;;5073882;28;20074;-58
2021/04/08 01:21:18;;;;;;;11.23;1.83;;;;;;;;;;5087792;28;20100;-60
2021/04/08 01:23:51;;;;;;;13.63;2.80;;;;;;;;;;5095223;28;20153;-59
2021/04/08 01:26:37;;;;;;;12.38;2.40;;;;;;;;;;5094567;28;20059;-60
2021/04/08 01:29:03;;;;;;;11.60;2.55;;;;;;;;;;5094414;28;20060;-54
2021/04/08 01:31:30;;;;;;;12.02;1.98;;;;;;;;;;5089281;28;20119;-55
2021/04/08 01:34:02;;;;;;;13.55;2.25;;;;;;;;;;5083533;28;20108;-56
2021/04/08 01:36:31;;;;;;;21.70;2.15;;;;;;;;;;5072861;28;20104;-56
2021/04/08 01:39:00;;;;;;;16.05;2.00;;;;;;;;;;5072872;28;20012;-54
2021/04/08 01:41:27;;;;;;;12.85;2.10;;;;;;;;;;5078346;28;20016;-57
2021/04/08 01:43:56;;;;;;;9.98;1.95;;;;;;;;;;5076863;28;20020;-59
2021/04/08 01:46:25;;;;;;;17.80;3.05;;;;;;;;;;5073886;28;20035;-56
2021/04/08 01:48:54;;;;;;;14.80;2.15;;;;;;;;;;5078374;28;20369;-55
2021/04/08 01:51:21;;;;;;;8.95;2.00;;;;;;;;;;5073677;28;20080;-57
2021/04/08 01:53:50;;;;;;;13.25;2.60;;;;;;;;;;5073318;28;20044;-61
2021/04/08 01:56:19;;;;;;;10.50;2.60;;;;;;;;;;5074298;28;20013;-59
2021/04/08 01:58:46;;;;;;;7.28;2.20;;;;;;;;;;5073061;28;20024;-60
2021/04/08 02:01:13;;;;;;;13.65;2.53;;;;;;;;;;5074695;28;20012;-55
2021/04/08 02:03:42;;;;;;;18.85;2.60;;;;;;;;;;5080636;28;20032;-55
2021/04/08 02:06:09;;;;;;;24.63;2.50;;;;;;;;;;5081040;28;20036;-56
2021/04/08 02:08:37;;;;;;;18.70;2.22;;;;;;;;;;5082030;28;20051;-53
2021/04/08 02:11:05;;;;;;;28.02;2.97;;;;;;;;;;5084036;28;20020;-64
2021/04/08 02:13:32;;;;;;;12.07;2.30;;;;;;;;;;5083493;28;20032;-56
2021/04/08 02:16:00;;;;;;;13.15;2.40;;;;;;;;;;5081554;28;20387;-55
2021/04/08 02:18:28;;;;;;;12.25;2.10;;;;;;;;;;5076304;28;20016;-57
2021/04/08 02:20:56;;;;;;;12.57;1.83;;;;;;;;;;5082045;28;20017;-56
2021/04/08 02:23:25;;;;;;;12.38;2.10;;;;;;;;;;5077742;28;20062;-57
2021/04/08 02:25:54;;;;;;;16.38;2.22;;;;;;;;;;5076280;28;20150;-53
2021/04/08 02:28:21;;;;;;;14.93;2.33;;;;;;;;;;5082443;28;20119;-54
2021/04/08 02:30:51;;;;;;;14.18;2.03;;;;;;;;;;5082998;28;20032;-53
2021/04/08 02:33:28;;;;;;;14.60;2.30;;;;;;;;;;5077415;28;20155;-54
2021/04/08 02:35:56;;;;;;;10.80;2.00;;;;;;;;;;5089778;28;20020;-55
2021/04/08 02:38:27;;;;;;;16.02;2.30;;;;;;;;;;5092693;28;20455;-54
2021/04/08 02:40:54;;;;;;;9.85;2.00;;;;;;;;;;5081743;28;20028;-56
2021/04/08 02:43:22;;;;;;;10.73;1.92;;;;;;;;;;5079979;28;20643;-53
2021/04/08 02:45:49;;;;;;;16.67;2.22;;;;;;;;;;5080805;28;20030;-55
2021/04/08 02:48:17;;;;;;;5.07;2.03;;;;;;;;;;5085242;28;20577;-55
2021/04/08 02:50:45;;;;;;;7.75;2.10;;;;;;;;;;5075237;28;20052;-52
2021/04/08 02:53:25;;;;;;;13.10;2.20;;;;;;;;;;5092064;28;20588;-54
2021/04/08 02:56:13;;;;;;;7.93;1.73;;;;;;;;;;5092896;28;20498;-61
2021/04/08 02:58:41;;;;;;;14.35;1.98;;;;;;;;;;5092298;28;20032;-57
2021/04/08 03:01:11;;;;;;;9.30;2.00;;;;;;;;;;5087288;28;20455;-57
2021/04/08 03:03:40;;;;;;;15.80;2.25;;;;;;;;;;5093200;28;20025;-55
2021/04/08 03:06:08;;;;;;;10.35;1.85;;;;;;;;;;5092152;28;20048;-56
2021/04/08 03:08:36;;;;;;;11.23;1.75;;;;;;;;;;5092613;28;20312;-57
2021/04/08 03:11:04;;;;;;;12.75;2.03;;;;;;;;;;5088610;28;20040;-56
2021/04/08 03:13:35;;;;;;;6.97;2.00;;;;;;;;;;5091778;28;20016;-55
2021/04/08 03:16:04;;;;;;;7.70;1.60;;;;;;;;;;5090944;28;20043;-55
2021/04/08 03:18:32;;;;;;;5.35;1.70;;;;;;;;;;5092730;28;20038;-57
2021/04/08 03:21:00;;;;;;;10.27;2.03;;;;;;;;;;5091021;28;20058;-56
2021/04/08 03:23:27;;;;;;;6.20;1.70;;;;;;;;;;5089538;28;20031;-56
2021/04/08 03:25:54;;;;;;;9.80;1.88;;;;;;;;;;5092675;28;20034;-58
2021/04/08 03:28:21;;;;;;;6.18;1.70;;;;;;;;;;5092727;28;20095;-56
2021/04/08 03:30:49;;;;;;;4.45;1.73;;;;;;;;;;5091944;28;20043;-57
2021/04/08 03:33:16;;;;;;;11.18;2.15;;;;;;;;;;5085727;28;20365;-57
2021/04/08 03:35:47;;;;;;;10.10;1.85;;;;;;;;;;5092636;28;20532;-57
2021/04/08 03:38:16;;;;;;;13.07;1.88;;;;;;;;;;5092342;28;20498;-57
2021/04/08 03:40:43;;;;;;;9.35;2.00;;;;;;;;;;5092067;28;20470;-53
2021/04/08 03:43:11;;;;;;;6.15;1.90;;;;;;;;;;5087521;28;20034;-56
2021/04/08 03:45:38;;;;;;;4.80;1.60;;;;;;;;;;5092447;28;20063;-57
2021/04/08 03:48:07;;;;;;;8.77;1.90;;;;;;;;;;5092310;28;20032;-57
2021/04/08 03:50:35;;;;;;;5.15;1.75;;;;;;;;;;5091696;28;20035;-55
2021/04/08 03:53:03;;;;;;;9.82;2.20;;;;;;;;;;5086934;28;20025;-56
2021/04/08 03:55:31;;;;;;;5.95;1.75;;;;;;;;;;5092288;28;20107;-55
2021/04/08 03:57:59;;;;;;;9.32;2.22;;;;;;;;;;5092293;28;20040;-57
2021/04/08 04:00:26;;;;;;;12.00;2.40;;;;;;;;;;5091551;28;20016;-57
2021/04/08 04:02:53;;;;;;;9.52;2.08;;;;;;;;;;5082636;28;20024;-59
2021/04/08 04:05:22;;;;;;;5.75;2.30;;;;;;;;;;5092168;28;20016;-56
2021/04/08 04:07:51;;;;;;;14.23;2.55;;;;;;;;;;5092369;28;20079;-55
2021/04/08 04:10:21;;;;;;;4.05;1.70;;;;;;;;;;5091849;28;20031;-52
2021/04/08 04:12:49;;;;;;;11.25;2.13;;;;;;;;;;5086807;28;20481;-56
2021/04/08 04:15:16;;;;;;;9.07;1.95;;;;;;;;;;5092150;28;20104;-55
2021/04/08 04:17:43;;;;;;;5.05;1.92;;;;;;;;;;5094774;28;20026;-55
2021/04/08 04:20:11;;;;;;;5.15;1.98;;;;;;;;;;5096088;28;20023;-55
2021/04/08 04:22:42;;;;;;;8.07;2.13;;;;;;;;;;5093740;28;20016;-56
2021/04/08 04:25:11;;;;;;;4.85;1.60;;;;;;;;;;5094046;28;20024;-55
2021/04/08 04:27:38;;;;;;;5.88;1.92;;;;;;;;;;5096253;28;20022;-54
2021/04/08 04:30:06;;;;;;;5.93;1.60;;;;;;;;;;5096108;28;20036;-56
2021/04/08 04:32:42;;;;;;;4.47;1.70;;;;;;;;;;5095725;28;20020;-53
2021/04/08 04:35:09;;;;;;;7.22;1.83;;;;;;;;;;5091196;28;20024;-55
2021/04/08 04:37:36;;;;;;;5.85;1.70;;;;;;;;;;5096058;28;20012;-56
2021/04/08 04:40:04;;;;;;;5.82;2.13;;;;;;;;;;5079925;28;20131;-56
2021/04/08 04:42:31;;;;;;;4.60;1.80;;;;;;;;;;5091449;28;20017;-56
2021/04/08 04:44:58;;;;;;;4.75;1.98;;;;;;;;;;5090726;28;20514;-56
2021/04/08 04:47:25;;;;;;;4.70;1.55;;;;;;;;;;5095704;28;20024;-57
2021/04/08 04:49:53;;;;;;;5.18;1.77;;;;;;;;;;5095537;28;20032;-57
2021/04/08 04:52:20;;;;;;;4.65;1.50;;;;;;;;;;5095400;28;20077;-58
2021/04/08 04:54:47;;;;;;;4.90;2.10;;;;;;;;;;5090423;28;20031;-56
2021/04/08 04:57:14;;;;;;;3.88;1.77;;;;;;;;;;5095520;28;20525;-58
2021/04/08 04:59:41;;;;;;;5.65;1.90;;;;;;;;;;5095424;28;20028;-55
2021/04/08 05:02:10;;;;;;;6.60;1.63;;;;;;;;;;5095376;28;20012;-57
2021/04/08 05:04:39;;;;;;;5.30;1.95;;;;;;;;;;5090206;28;20032;-55
2021/04/08 05:07:06;;;;;;;2.72;1.55;;;;;;;;;;5095264;28;20040;-56
2021/04/08 05:09:33;;;;;;;7.72;1.88;;;;;;;;;;5095544;28;20559;-54
2021/04/08 05:12:00;;;;;;;4.75;1.75;;;;;;;;;;5095202;28;20020;-58
2021/04/08 05:14:27;;;;;;;8.48;2.00;;;;;;;;;;5090372;28;20024;-58
2021/04/08 05:16:54;;;;;;;4.55;1.52;;;;;;;;;;5094996;28;20089;-56
2021/04/08 05:19:22;;;;;;;5.93;1.80;;;;;;;;;;5093860;28;20030;-58
2021/04/08 05:21:52;;;;;;;6.70;1.90;;;;;;;;;;5094935;28;20387;-57
2021/04/08 05:24:19;;;;;;;3.47;1.80;;;;;;;;;;5091633;28;20043;-56
2021/04/08 05:26:46;;;;;;;5.00;1.63;;;;;;;;;;5093495;28;20498;-56
2021/04/08 05:29:13;;;;;;;3.78;1.80;;;;;;;;;;5094503;28;20471;-57
2021/04/08 05:31:41;;;;;;;5.18;2.13;;;;;;;;;;5094703;28;20028;-56
2021/04/08 05:34:08;;;;;;;5.72;2.15;;;;;;;;;;5094291;28;20497;-57
2021/04/08 05:36:35;;;;;;;4.15;2.00;;;;;;;;;;5090119;28;20020;-58
2021/04/08 05:39:03;;;;;;;5.50;2.47;;;;;;;;;;5094869;28;20027;-55
2021/04/08 05:41:30;;;;;;;4.95;1.70;;;;;;;;;;5094784;28;20077;-58
2021/04/08 05:43:57;;;;;;;3.75;1.85;;;;;;;;;;5094477;28;20467;-57
2021/04/08 05:46:24;;;;;;;4.38;2.00;;;;;;;;;;5088030;28;20103;-58
2021/04/08 05:48:54;;;;;;;5.82;1.88;;;;;;;;;;5094642;28;20012;-58
2021/04/08 05:51:21;;;;;;;6.82;2.00;;;;;;;;;;5094388;28;20039;-56
2021/04/08 05:53:48;;;;;;;7.00;2.03;;;;;;;;;;5094314;28;20054;-57
2021/04/08 05:56:15;;;;;;;4.97;1.80;;;;;;;;;;5089537;28;20479;-58
2021/04/08 05:58:42;;;;;;;3.92;1.65;;;;;;;;;;5094375;28;20463;-56
2021/04/08 06:01:09;;;;;;;5.10;2.22;;;;;;;;;;5094056;28;20605;-57
2021/04/08 06:03:36;;;;;;;3.95;1.80;;;;;;;;;;5094275;28;20046;-56
2021/04/08 06:06:04;;;;;;;3.38;1.75;;;;;;;;;;5089217;28;20048;-59
2021/04/08 06:08:31;;;;;;;4.88;1.80;;;;;;;;;;5078173;28;20471;-60
2021/04/08 06:10:58;;;;;;;3.95;1.90;;;;;;;;;;5076132;28;20043;-59
2021/04/08 06:13:25;;;;;;;4.95;2.00;;;;;;;;;;5078331;28;20165;-56
2021/04/08 06:15:53;;;;;;;7.88;1.98;;;;;;;;;;5088166;28;20033;-57
2021/04/08 06:18:21;;;;;;;4.03;1.50;;;;;;;;;;5089818;28;20121;-55
2021/04/08 06:20:48;;;;;;;4.57;1.67;;;;;;;;;;5083384;28;20028;-59
2021/04/08 06:23:15;;;;;;;4.22;2.00;;;;;;;;;;5093065;28;20077;-58
2021/04/08 06:25:42;;;;;;;3.20;1.50;;;;;;;;;;5090676;28;20395;-57
2021/04/08 06:28:09;;;;;;;4.95;1.77;;;;;;;;;;5091881;28;20028;-58
2021/04/08 06:30:37;;;;;;;5.20;1.80;;;;;;;;;;5093426;28;20028;-61
2021/04/08 06:33:04;;;;;;;3.67;1.48;;;;;;;;;;5093417;28;20034;-56
2021/04/08 06:35:32;;;;;;;8.30;1.73;;;;;;;;;;5093626;28;20044;-57
2021/04/08 06:37:59;;;;;;;6.20;1.80;;;;;;;;;;5088153;28;20058;-56
2021/04/08 06:40:26;;;;;;;5.25;1.52;;;;;;;;;;5092921;28;20028;-56
2021/04/08 06:42:53;;;;;;;4.10;1.50;;;;;;;;;;5093530;28;20044;-57
2021/04/08 06:45:23;;;;;;;5.43;1.83;;;;;;;;;;5092834;28;20028;-56
2021/04/08 06:48:04;;;;;;;3.97;1.63;;;;;;;;;;5088044;28;20038;-57
2021/04/08 06:50:35;;;;;;;2.53;1.75;;;;;;;;;;5093475;28;20032;-57
2021/04/08 06:53:03;;;;;;;3.58;1.70;;;;;;;;;;5093553;28;20024;-56
2021/04/08 06:55:31;;;;;;;5.00;1.40;;;;;;;;;;5093117;28;20028;-56
2021/04/08 06:57:58;;;;;;;3.15;1.70;;;;;;;;;;5087937;28;20027;-57
2021/04/08 07:00:26;;;;;;;2.33;1.52;;;;;;;;;;5093343;28;20056;-56
2021/04/08 07:02:53;;;;;;;3.30;1.50;;;;;;;;;;5093064;28;20050;-60
2021/04/08 07:05:20;;;;;;;2.85;1.60;;;;;;;;;;5093074;28;20450;-58
2021/04/08 07:07:47;;;;;;;5.85;1.73;;;;;;;;;;5088185;28;20044;-58
2021/04/08 07:10:14;;;;;;;5.63;1.88;;;;;;;;;;5092272;28;20024;-58
2021/04/08 07:12:41;;;;;;;2.65;1.63;;;;;;;;;;5092988;28;20028;-58
2021/04/08 07:15:08;;;;;;;3.20;1.50;;;;;;;;;;5092688;28;20471;-56
2021/04/08 07:17:35;;;;;;;3.42;1.90;;;;;;;;;;5088012;28;20024;-60
2021/04/08 07:20:03;;;;;;;3.60;1.60;;;;;;;;;;5092676;28;20036;-57
2021/04/08 07:22:30;;;;;;;2.83;1.70;;;;;;;;;;5092966;28;20032;-58
2021/04/08 07:24:57;;;;;;;3.15;1.50;;;;;;;;;;5092754;28;20466;-57
2021/04/08 07:27:25;;;;;;;2.85;1.50;;;;;;;;;;5088271;28;20028;-57
2021/04/08 07:29:59;;;;;;;4.07;1.73;;;;;;;;;;5071737;28;20041;-58
2021/04/08 07:32:29;;;;;;;2.17;1.30;;;;;;;;;;5072662;28;20020;-57
2021/04/08 07:34:57;;;;;;;2.78;1.27;;;;;;;;;;5072126;28;20384;-57
2021/04/08 07:37:29;;;;;;;2.42;1.60;;;;;;;;;;5072514;28;20423;-56
2021/04/08 07:39:56;;;;;;;2.67;1.50;;;;;;;;;;5090845;28;20036;-58
2021/04/08 07:42:28;;;;;;;1.90;1.20;;;;;;;;;;5092812;28;20051;-56
2021/04/08 07:45:02;;;;;;;1.98;1.20;;;;;;;;;;5092245;28;20024;-57
2021/04/08 07:47:29;;;;;;;2.25;1.30;;;;;;;;;;5090264;28;20092;-57
2021/04/08 07:49:58;;;;;;;1.88;1.48;;;;;;;;;;5089298;28;20028;-55
2021/04/08 07:52:25;;;;;;;3.33;1.45;;;;;;;;;;5092411;28;20016;-56
2021/04/08 07:54:59;;;;;;;3.05;1.70;;;;;;;;;;5092026;28;20027;-57
2021/04/08 07:57:26;;;;;;;2.78;1.17;;;;;;;;;;5091976;28;20043;-57
2021/04/08 07:59:54;;;;;;;2.50;1.48;;;;;;;;;;5087482;28;20016;-59
2021/04/08 08:02:26;;;;;;;2.58;1.50;;;;;;;;;;5092127;28;20483;-60
2021/04/08 08:04:52;;;;;;;;;;;;;;;;;;5092618;28;20031;-58
2021/04/08 08:07:29;;;;;;;2.63;1.50;;;;;;;;;;5091893;28;19916;-57
2021/04/08 08:10:01;;;;;;;2.38;1.35;;;;;;;;;;5087535;28;20032;-58
2021/04/08 08:12:32;;;;;;;1.98;1.20;;;;;;;;;;5091937;28;20028;-55
2021/04/08 08:15:16;;;;;;;1.85;1.35;;;;;;;;;;5092040;28;20028;-58
2021/04/08 08:17:43;;;;;;;2.47;1.20;;;;;;;;;;5091621;28;20035;-58
2021/04/08 08:20:11;;;;;;;2.60;1.27;;;;;;;;;;5087527;28;20483;-58
2021/04/08 08:22:38;;;;;;;2.50;1.20;;;;;;;;;;5091950;28;20411;-57
2021/04/08 08:25:06;;;;;;;1.70;1.13;;;;;;;;;;5090507;28;20032;-55
2021/04/08 08:27:40;;;;;;;2.70;1.20;;;;;;;;;;5090754;28;20036;-57
2021/04/08 08:30:08;;;;;;;1.98;1.23;;;;;;;;;;5087066;28;20120;-58
2021/04/08 08:32:35;;;;;;;2.85;1.00;;;;;;;;;;5091597;28;20076;-58
2021/04/08 08:35:02;;;;;;;2.30;1.10;;;;;;;;;;5091781;28;20023;-57
2021/04/08 08:37:29;;;;;;;3.65;1.20;;;;;;;;;;5091954;28;20101;-65
2021/04/08 08:39:56;;;;;;;1.73;1.15;;;;;;;;;;5086993;28;20040;-56
2021/04/08 08:42:24;;;;;;;2.40;1.17;;;;;;;;;;5091746;28;20012;-58
2021/04/08 08:44:54;;;;;;;1.73;1.02;;;;;;;;;;5092018;28;20040;-57
2021/04/08 08:47:25;;;;;;;2.05;1.17;;;;;;;;;;5091385;28;20429;-58
2021/04/08 08:50:09;;;;;;;2.10;1.20;;;;;;;;;;5086981;28;20093;-57
2021/04/08 08:52:37;;;;;;;2.50;1.38;;;;;;;;;;5091631;28;20017;-55
2021/04/08 08:55:18;;;;;;;1.67;1.00;;;;;;;;;;5092037;28;20483;-56
2021/04/08 08:57:47;;;;;;;3.03;1.02;;;;;;;;;;5091465;28;20032;-55
2021/04/08 09:00:15;;;;;;;2.42;1.00;;;;;;;;;;5086739;28;20024;-57
2021/04/08 09:02:42;;;;;;;1.40;1.10;;;;;;;;;;5091993;28;20031;-58
2021/04/08 09:05:14;;;;;;;6.22;1.15;;;;;;;;;;5089383;28;20443;-56
2021/04/08 09:07:42;;;;;;;4.20;1.20;;;;;;;;;;5075957;28;20041;-57
2021/04/08 09:10:10;;;;;;;7.78;1.23;;;;;;;;;;5081275;28;20061;-62
2021/04/08 09:12:38;;;;;;;5.60;1.38;;;;;;;;;;5077528;28;20031;-58
2021/04/08 09:15:06;;;;;;;1.92;1.30;;;;;;;;;;5074811;28;20459;-60
2021/04/08 09:17:42;;;;;;;1.83;1.20;;;;;;;;;;5092497;28;20537;-59
2021/04/08 09:20:11;;;;;;;4.30;1.33;;;;;;;;;;5081440;28;20043;-58
2021/04/08 09:22:56;;;;;;;4.13;1.15;;;;;;;;;;5087463;28;20020;-59
2021/04/08 09:25:28;;;;;;;3.22;1.38;;;;;;;;;;5074185;28;20120;-57
2021/04/08 09:27:56;;;;;;;5.30;1.58;;;;;;;;;;5074757;28;20379;-60
2021/04/08 09:30:58;;;;;;;9.35;1.40;;;;;;;;;;5074764;28;20475;-60
2021/04/08 09:33:52;;;;;;;6.77;1.43;;;;;;;;;;5093360;28;20032;-58
2021/04/08 09:36:22;;;;;;;4.57;1.33;;;;;;;;;;5093340;28;20081;-59
2021/04/08 09:39:01;;;;;;;3.60;1.15;;;;;;;;;;5094127;28;20034;-57
2021/04/08 09:41:44;;;;;;;2.40;1.00;;;;;;;;;;5089421;28;20035;-58
2021/04/08 09:44:12;;;;;;;3.53;1.20;;;;;;;;;;5091661;28;20495;-60
2021/04/08 09:46:40;;;;;;;2.97;1.00;;;;;;;;;;5093537;28;20074;-60
2021/04/08 09:49:08;;;;;;;1.90;0.90;;;;;;;;;;5093961;28;20487;-49
2021/04/08 09:51:47;;;;;;;2.53;1.20;;;;;;;;;;5089329;28;20028;-48
2021/04/08 09:54:17;;;;;;;1.88;1.00;;;;;;;;;;5093440;28;20020;-54
2021/04/08 09:56:48;;;;;;;4.38;1.67;;;;;;;;;;5092061;28;20085;-55
2021/04/08 09:59:17;;;;;;;3.63;1.30;;;;;;;;;;5093986;28;20483;-57
2021/04/08 10:01:44;;;;;;;1.58;0.73;;;;;;;;;;5089143;28;20024;-55
2021/04/08 10:04:12;;;;;;;2.90;1.27;;;;;;;;;;5091994;28;20020;-56
2021/04/08 10:06:40;;;;;;;2.22;1.20;;;;;;;;;;5089702;28;20090;-55
2021/04/08 10:09:11;;;;;;;5.63;1.95;;;;;;;;;;5071882;28;20116;-54
2021/04/08 10:11:39;;;;;;;3.22;1.20;;;;;;;;;;5076514;28;20550;-53
2021/04/08 10:14:24;;;;;;;2.53;1.20;;;;;;;;;;5093926;28;20383;-50
2021/04/08 10:17:02;;;;;;;4.53;1.13;;;;;;;;;;5093520;28;20077;-58
2021/04/08 10:19:30;;;;;;;8.70;1.45;;;;;;;;;;5083014;28;20016;-55
2021/04/08 10:21:57;;;;;;;2.70;1.10;;;;;;;;;;5085435;28;20103;-52
2021/04/08 10:24:25;;;;;;;3.70;0.95;;;;;;;;;;5091738;28;20032;-56
2021/04/08 10:26:52;;;;;;;2.72;1.38;;;;;;;;;;5093246;28;20027;-56
2021/04/08 10:29:39;;;;;;;3.63;1.10;;;;;;;;;;5093606;28;20023;-52
2021/04/08 10:32:06;;;;;;;4.93;1.02;;;;;;;;;;5085250;28;20055;-54
2021/04/08 10:34:42;;;;;;;2.70;1.27;;;;;;;;;;5073580;28;20032;-58
2021/04/08 10:37:10;;;;;;;6.50;1.45;;;;;;;;;;5072912;28;20043;-59
2021/04/08 10:39:38;;;;;;;1.85;1.05;;;;;;;;;;5088119;28;20375;-67
2021/04/08 10:42:12;;;;;;;3.95;1.50;;;;;;;;;;5088271;28;20028;-53
2021/04/08 10:44:46;;;;;;;9.63;1.65;;;;;;;;;;5091082;28;20020;-59
2021/04/08 10:47:14;;;;;;;7.53;1.60;;;;;;;;;;5092650;28;20043;-53
2021/04/08 10:49:51;;;;;;;3.78;1.40;;;;;;;;;;5092980;28;20107;-53
2021/04/08 10:52:20;;;;;;;2.65;1.17;;;;;;;;;;5088293;28;20032;-51
2021/04/08 10:54:50;;;;;;;5.03;1.33;;;;;;;;;;5080781;28;20032;-57
2021/04/08 10:57:17;;;;;;;7.28;1.60;;;;;;;;;;5071428;28;20031;-55
2021/04/08 10:59:45;;;;;;;4.60;2.40;;;;;;;;;;5072116;28;20024;-56
2021/04/08 11:02:30;;;;;;;3.20;1.73;;;;;;;;;;5072834;28;20063;-59
2021/04/08 11:04:58;;;;;;;3.10;1.70;;;;;;;;;;5086751;28;20391;-59
2021/04/08 11:07:26;;;;;;;4.40;1.75;;;;;;;;;;5076078;28;20051;-58
2021/04/08 11:09:55;;;;;;;4.30;1.65;;;;;;;;;;5080760;28;20107;-58
2021/04/08 11:12:23;;;;;;;7.65;1.55;;;;;;;;;;5082163;28;20020;-58
2021/04/08 11:14:55;;;;;;;6.38;1.90;;;;;;;;;;5090962;28;20456;-50
2021/04/08 11:17:23;;;;;;;4.72;1.55;;;;;;;;;;5088304;28;20106;-57
2021/04/08 11:19:52;;;;;;;3.28;1.80;;;;;;;;;;5091629;28;20115;-59
2021/04/08 11:24:55;;;;;;;4.68;1.17;;;;;;;;;;5078075;22;20464;-57
2021/04/08 11:27:44;;;;;;;4.25;1.50;;;;;;;;;;5013550;28;20551;-51
2021/04/08 11:30:15;;;;;;;3.42;1.25;;;;;;;;;;5031916;28;20468;-53
2021/04/08 11:32:46;;;;;;;1.52;0.88;;;;;;;;;;5030662;28;20096;-52
2021/04/08 11:35:31;;;;;;;3.00;1.50;;;;;;;;;;5024798;28;20120;-54
2021/04/08 11:38:06;;;;;;;3.15;1.40;;;;;;;;;;5025012;28;20096;-54
2021/04/08 11:40:33;;;;;;;6.72;1.42;;;;;;;;;;5023696;28;20041;-55
2021/04/08 11:43:00;;;;;;;3.60;1.20;;;;;;;;;;5029780;28;20025;-53
2021/04/08 11:45:31;;;;;;;3.63;1.30;;;;;;;;;;5026848;28;20021;-60
2021/04/08 11:47:59;;;;;;;2.97;1.17;;;;;;;;;;5031747;28;20467;-55
2021/04/08 11:50:33;;;;;;;4.85;1.45;;;;;;;;;;5029997;28;20040;-52
2021/04/08 11:53:23;;;;;;;1.70;0.90;;;;;;;;;;5030631;28;20025;-52
2021/04/08 11:55:51;;;;;;;10.40;2.22;;;;;;;;;;5003604;28;20092;-57
2021/04/08 11:58:25;;;;;;;7.50;1.27;;;;;;;;;;5018745;28;20404;-59
2021/04/08 12:00:52;;;;;;;5.53;1.60;;;;;;;;;;5023060;28;20083;-58
2021/04/08 12:03:27;;;;;;;3.65;1.10;;;;;;;;;;5024695;28;20021;-55
2021/04/08 12:05:54;;;;;;;4.15;1.10;;;;;;;;;;5017838;28;20315;-55
2021/04/08 12:08:39;;;;;;;5.28;1.42;;;;;;;;;;5017912;28;20048;-52
2021/04/08 12:11:07;;;;;;;3.15;1.20;;;;;;;;;;5021060;28;20508;-62
2021/04/08 12:13:34;;;;;;;4.72;1.52;;;;;;;;;;5015765;28;20018;-59
2021/04/08 12:16:01;;;;;;;10.27;2.15;;;;;;;;;;5025021;28;20116;-62
2021/04/08 12:18:29;;;;;;;4.82;1.75;;;;;;;;;;5031031;28;20025;-61
2021/04/08 12:20:57;;;;;;;15.93;2.40;;;;;;;;;;5028619;28;20025;-67
2021/04/08 12:23:34;;;;;;;13.80;2.30;;;;;;;;;;5014572;28;20089;-55
2021/04/08 12:26:01;;;;;;;5.85;2.00;;;;;;;;;;5012725;28;20029;-54
2021/04/08 12:28:28;;;;;;;16.92;2.35;;;;;;;;;;5030045;28;20017;-60
2021/04/08 12:31:02;;;;;;;4.93;1.77;;;;;;;;;;5028280;28;20037;-67
2021/04/08 12:33:34;;;;;;;9.80;1.80;;;;;;;;;;5012465;28;20421;-62
2021/04/08 12:36:11;;;;;;;7.88;1.90;;;;;;;;;;5001540;28;20080;-63
2021/04/08 12:38:38;;;;;;;6.70;1.60;;;;;;;;;;5001564;28;20025;-60
2021/04/08 12:41:06;;;;;;;9.02;1.80;;;;;;;;;;4995586;28;20189;-58
2021/04/08 12:43:33;;;;;;;8.00;1.63;;;;;;;;;;5008841;28;20032;-58
2021/04/08 12:46:01;;;;;;;8.32;1.88;;;;;;;;;;5011724;28;20030;-59
2021/04/08 12:48:28;;;;;;;11.25;2.30;;;;;;;;;;5014031;28;20080;-60
2021/04/08 12:50:57;;;;;;;10.80;2.65;;;;;;;;;;5011663;28;20535;-60
2021/04/08 12:53:24;;;;;;;9.32;2.13;;;;;;;;;;5014395;28;20028;-61
2021/04/08 12:55:52;;;;;;;9.85;2.25;;;;;;;;;;5008543;28;20452;-62
2021/04/08 12:58:19;;;;;;;10.77;1.92;;;;;;;;;;5013590;28;20485;-60
2021/04/08 13:00:47;;;;;;;6.45;1.90;;;;;;;;;;5012706;28;20109;-61
2021/04/08 13:03:14;;;;;;;7.90;2.35;;;;;;;;;;5011736;28;20045;-65
2021/04/08 13:05:41;;;;;;;6.25;1.60;;;;;;;;;;5014357;28;20022;-62
2021/04/08 13:08:10;;;;;;;6.68;2.10;;;;;;;;;;5016183;28;20531;-60
2021/04/08 13:10:37;;;;;;;8.60;1.90;;;;;;;;;;5026432;28;20073;-60
2021/04/08 13:13:05;;;;;;;8.43;1.90;;;;;;;;;;5033942;28;20021;-59
2021/04/08 13:15:32;;;;;;;11.82;1.90;;;;;;;;;;5033615;28;20026;-61
2021/04/08 13:18:01;;;;;;;8.55;2.05;;;;;;;;;;5035048;28;20088;-60
2021/04/08 13:20:29;;;;;;;10.65;2.22;;;;;;;;;;5035148;28;20098;-57
2021/04/08 13:22:56;;;;;;;7.47;1.63;;;;;;;;;;5034814;28;20189;-59
2021/04/08 13:25:24;;;;;;;5.50;2.08;;;;;;;;;;5033839;28;20064;-58
2021/04/08 13:27:54;;;;;;;6.82;1.58;;;;;;;;;;5033974;28;20503;-60
2021/04/08 13:30:22;;;;;;;5.75;1.60;;;;;;;;;;5034880;28;20042;-59
2021/04/08 13:32:49;;;;;;;8.45;1.70;;;;;;;;;;5034618;28;20029;-60
2021/04/08 13:35:17;;;;;;;7.90;1.92;;;;;;;;;;5035112;28;20488;-61
2021/04/08 13:37:44;;;;;;;8.40;1.95;;;;;;;;;;5033304;28;20057;-60
2021/04/08 13:40:12;;;;;;;6.82;1.60;;;;;;;;;;5033320;28;20044;-60
2021/04/08 13:42:41;;;;;;;7.45;2.00;;;;;;;;;;5034619;28;20028;-60
2021/04/08 13:45:09;;;;;;;8.00;1.83;;;;;;;;;;5034762;28;20033;-57
2021/04/08 13:47:36;;;;;;;8.43;2.28;;;;;;;;;;5032816;28;20381;-60
2021/04/08 13:50:03;;;;;;;10.98;2.25;;;;;;;;;;5006488;28;20043;-60
2021/04/08 13:52:30;;;;;;;13.23;2.42;;;;;;;;;;5022300;28;20068;-60
2021/04/08 13:54:57;;;;;;;6.60;2.15;;;;;;;;;;5022618;28;20112;-58
2021/04/08 13:57:25;;;;;;;5.43;1.70;;;;;;;;;;5010971;28;20021;-60
2021/04/08 13:59:52;;;;;;;10.05;2.05;;;;;;;;;;5014122;28;20038;-62
2021/04/08 14:02:19;;;;;;;18.85;2.42;;;;;;;;;;5014019;28;20037;-62
2021/04/08 14:04:46;;;;;;;12.65;2.35;;;;;;;;;;5009521;28;20383;-57
2021/04/08 14:07:13;;;;;;;10.07;2.05;;;;;;;;;;5012293;28;20481;-63
2021/04/08 14:09:40;;;;;;;7.68;1.77;;;;;;;;;;5013814;28;20034;-61
2021/04/08 14:12:07;;;;;;;3.85;1.45;;;;;;;;;;5013519;28;20508;-63
2021/04/08 14:14:34;;;;;;;12.43;1.85;;;;;;;;;;5011036;28;20117;-62
2021/04/08 14:17:01;;;;;;;8.55;1.80;;;;;;;;;;5006541;28;20037;-58
2021/04/08 14:19:29;;;;;;;9.18;1.67;;;;;;;;;;5012171;28;20064;-65
2021/04/08 14:21:56;;;;;;;5.93;1.52;;;;;;;;;;5011913;28;20068;-60
2021/04/08 14:24:23;;;;;;;7.78;1.80;;;;;;;;;;5009961;28;20050;-59
2021/04/08 14:26:52;;;;;;;9.00;1.58;;;;;;;;;;5005784;28;20101;-56
2021/04/08 14:29:19;;;;;;;7.63;1.27;;;;;;;;;;5008874;28;20037;-60
2021/04/08 14:31:46;;;;;;;9.48;2.05;;;;;;;;;;5010435;28;20072;-60
2021/04/08 14:34:14;;;;;;;6.90;1.50;;;;;;;;;;5011872;28;20100;-60
2021/04/08 14:36:41;;;;;;;5.72;1.30;;;;;;;;;;5011841;28;20022;-63
2021/04/08 14:39:08;;;;;;;8.07;1.40;;;;;;;;;;5010055;28;20025;-60
2021/04/08 14:41:35;;;;;;;7.63;1.52;;;;;;;;;;5007640;28;20026;-57
2021/04/08 14:44:02;;;;;;;6.28;1.45;;;;;;;;;;5016755;28;20026;-60
2021/04/08 14:46:30;;;;;;;3.72;1.33;;;;;;;;;;5012029;28;20030;-51
2021/04/08 14:48:57;;;;;;;8.32;1.05;;;;;;;;;;5010878;28;20029;-56
2021/04/08 14:51:25;;;;;;;5.80;1.38;;;;;;;;;;5014150;28;20037;-59
2021/04/08 14:53:53;;;;;;;3.53;1.10;;;;;;;;;;5013145;28;20025;-62